Port Aransas, Texas
Current Conditions -  °F | °C
As of 12:35 AM on Tuesday 21 Oct 2014 (Local Time) from KRAS Reporting Station
Broken Clouds Broken Clouds  
Wind Chill: 76°   Ceiling: 1900
Heat Index: 77°   Visibility: 10mi
Dew Point: 70°   Wind: 12mph
Humidity: 82%   Direction: 80°E
Pressure: 29.96"   Gusts: 20mph
Location:  27.83°N, 97.06°W
Report Text: KRAS 210535Z AUTO 08010G17KT 10SM BKN019 BKN024 25/21 A2996 RMK AO2 T02450213
Loading
Personal Weather Stations






























Interactive Weather Map
Tropical Storm Tracking
New forecast layout! Learn more

10-Day Weather Forecast

Advertisements
Track Severe Weather on mobile